createdAt,value
2022-08-21T00:02:23.983Z,88.39
2022-08-21T00:04:56.959Z,88.52
2022-08-21T00:07:25.310Z,88.65
2022-08-21T00:09:52.901Z,88.78
2022-08-21T00:12:20.334Z,88.97
2022-08-21T00:14:47.143Z,88.95
2022-08-21T00:17:14.180Z,89.15
2022-08-21T00:19:40.890Z,89.25
2022-08-21T00:22:07.591Z,89.32
2022-08-21T00:24:34.731Z,89.37
2022-08-21T00:27:01.407Z,89.50
2022-08-21T00:29:28.182Z,89.61
2022-08-21T00:31:55.089Z,89.83
2022-08-21T00:34:21.798Z,89.76
2022-08-21T00:36:48.578Z,89.77
2022-08-21T00:39:15.490Z,89.68
2022-08-21T00:41:43.437Z,89.77
2022-08-21T00:44:14.324Z,89.82
2022-08-21T00:46:43.105Z,89.79
2022-08-21T00:49:12.522Z,89.79
2022-08-21T00:51:46.178Z,89.86
2022-08-21T00:54:18.673Z,89.80
2022-08-21T00:56:49.044Z,89.82
2022-08-21T00:59:18.775Z,89.82
2022-08-21T01:01:46.070Z,89.95
2022-08-21T01:04:13.202Z,90.09
2022-08-21T01:06:40.398Z,89.95
2022-08-21T01:09:07.125Z,89.96
2022-08-21T01:11:33.846Z,89.91
2022-08-21T01:14:00.938Z,90.09
2022-08-21T01:16:28.085Z,90.04
2022-08-21T01:18:54.743Z,90.21
2022-08-21T01:21:27.939Z,90.04
2022-08-21T01:23:57.060Z,90.12
2022-08-21T01:26:34.092Z,90.16
2022-08-21T01:29:10.999Z,90.31
2022-08-21T01:31:38.816Z,90.31
2022-08-21T01:34:06.402Z,90.48
2022-08-21T01:36:33.486Z,90.38
2022-08-21T01:39:00.783Z,90.44
2022-08-21T01:41:27.468Z,90.53
2022-08-21T01:43:54.113Z,90.70
2022-08-21T01:46:21.398Z,90.73
2022-08-21T01:48:48.180Z,90.56
2022-08-21T01:51:14.900Z,90.73
2022-08-21T01:53:42.157Z,90.86
2022-08-21T01:56:12.704Z,90.81
2022-08-21T01:58:45.711Z,90.86
2022-08-21T02:01:13.078Z,90.94
2022-08-21T02:03:40.430Z,90.87
2022-08-21T02:06:08.211Z,90.99
2022-08-21T02:08:35.599Z,90.89
2022-08-21T02:11:02.625Z,90.97
2022-08-21T02:13:29.602Z,91.00
2022-08-21T02:15:56.259Z,91.14
2022-08-21T02:18:23.324Z,90.97
2022-08-21T02:20:54.103Z,90.76
2022-08-21T02:23:26.689Z,90.84
2022-08-21T02:26:02.334Z,90.78
2022-08-21T02:28:29.508Z,90.29
2022-08-21T02:30:57.025Z,90.16
2022-08-21T02:33:24.848Z,89.77
2022-08-21T02:35:52.969Z,89.32
2022-08-21T02:38:34.209Z,89.19
2022-08-21T02:41:02.010Z,89.41
2022-08-21T02:43:29.426Z,89.14
2022-08-21T02:45:58.088Z,88.97
2022-08-21T02:48:30.637Z,88.89
2022-08-21T02:51:04.392Z,88.48
2022-08-21T02:53:31.987Z,88.32
2022-08-21T02:56:02.817Z,88.40
2022-08-21T02:58:34.295Z,88.68
2022-08-21T03:01:02.034Z,88.57
2022-08-21T03:03:29.197Z,88.26
2022-08-21T03:05:56.433Z,88.29
2022-08-21T03:08:24.191Z,88.23
2022-08-21T03:10:55.063Z,88.36
2022-08-21T03:13:22.127Z,88.40
2022-08-21T03:15:50.817Z,88.29
2022-08-21T03:18:18.582Z,88.01
2022-08-21T03:20:48.686Z,87.91
2022-08-21T03:23:18.420Z,87.74
2022-08-21T03:25:47.829Z,87.80
2022-08-21T03:28:20.292Z,87.55
2022-08-21T03:30:49.669Z,87.41
2022-08-21T03:33:17.114Z,87.04
2022-08-21T03:35:56.471Z,87.16
2022-08-21T03:38:26.501Z,87.23
2022-08-21T03:40:54.405Z,86.75
2022-08-21T03:43:21.907Z,86.80
2022-08-21T03:45:48.714Z,86.42
2022-08-21T03:48:15.906Z,86.47
2022-08-21T03:50:45.889Z,86.10
2022-08-21T03:53:16.968Z,85.89
2022-08-21T03:55:49.600Z,85.75
2022-08-21T03:58:18.688Z,85.24
2022-08-21T04:00:48.587Z,84.64
2022-08-21T04:03:16.436Z,84.34
2022-08-21T04:05:44.180Z,83.79
2022-08-21T04:08:10.848Z,83.51
2022-08-21T04:10:40.155Z,83.20
2022-08-21T04:13:08.595Z,82.99
2022-08-21T04:15:35.483Z,82.73
2022-08-21T04:18:04.547Z,81.98
2022-08-21T04:20:31.485Z,81.90
2022-08-21T04:22:58.369Z,82.28
2022-08-21T04:25:28.716Z,82.21
2022-08-21T04:27:55.541Z,82.04
2022-08-21T04:30:28.150Z,81.63
2022-08-21T04:32:58.311Z,80.06
2022-08-21T04:35:27.215Z,79.89
2022-08-21T04:37:54.167Z,79.89
2022-08-21T04:40:23.656Z,79.85
2022-08-21T04:42:56.136Z,78.47
2022-08-21T04:45:27.839Z,78.13
2022-08-21T04:47:56.851Z,76.52
2022-08-21T04:50:28.014Z,76.79
2022-08-21T04:53:04.995Z,75.57
2022-08-21T04:55:32.466Z,74.73
2022-08-21T04:58:01.013Z,74.41
2022-08-21T05:00:27.947Z,74.23
2022-08-21T05:03:00.106Z,73.96
2022-08-21T05:05:30.016Z,74.34
2022-08-21T05:08:00.455Z,73.90
2022-08-21T05:10:27.634Z,73.74
2022-08-21T05:12:55.731Z,73.33
2022-08-21T05:15:22.755Z,73.26
2022-08-21T05:17:55.488Z,73.06
2022-08-21T05:20:28.882Z,72.74
2022-08-21T05:22:56.296Z,73.29
2022-08-21T05:25:23.846Z,73.12
2022-08-21T05:27:51.999Z,72.18
2022-08-21T05:30:19.984Z,72.03
2022-08-21T05:32:48.473Z,72.17
2022-08-21T05:35:15.922Z,72.24
2022-08-21T05:37:42.607Z,72.39
2022-08-21T05:40:22.518Z,72.09
2022-08-21T05:42:55.037Z,71.87
2022-08-21T05:45:43.356Z,71.89
2022-08-21T05:48:31.799Z,72.15
2022-08-21T05:50:59.028Z,71.99
2022-08-21T05:53:26.409Z,71.75
2022-08-21T05:55:53.251Z,72.24
2022-08-21T05:58:21.784Z,71.78
2022-08-21T06:00:51.338Z,71.44
2022-08-21T06:03:27.070Z,71.28
2022-08-21T06:05:54.835Z,71.57
2022-08-21T06:08:22.959Z,71.49
2022-08-21T06:10:51.043Z,71.16
2022-08-21T06:13:19.679Z,71.29
2022-08-21T06:15:46.804Z,71.40
2022-08-21T06:18:13.822Z,71.67
2022-08-21T06:20:40.935Z,70.77
2022-08-21T06:23:08.312Z,70.78
2022-08-21T06:25:35.294Z,70.28
2022-08-21T06:28:06.270Z,70.15
2022-08-21T06:30:34.243Z,70.22
2022-08-21T06:33:01.428Z,70.01
2022-08-21T06:35:29.956Z,69.97
2022-08-21T06:37:58.567Z,69.33
2022-08-21T06:40:26.982Z,69.58
2022-08-21T06:42:53.793Z,69.51
2022-08-21T06:45:21.866Z,69.67
2022-08-21T06:47:48.582Z,69.05
2022-08-21T06:50:15.328Z,68.79
2022-08-21T06:52:42.480Z,68.38
2022-08-21T06:55:11.239Z,68.22
2022-08-21T06:57:38.760Z,68.49
2022-08-21T07:00:07.578Z,69.12
2022-08-21T07:02:34.763Z,68.07
2022-08-21T07:05:01.789Z,67.93
2022-08-21T07:07:45.387Z,67.43
2022-08-21T07:10:22.326Z,67.52
2022-08-21T07:13:00.026Z,67.12
2022-08-21T07:15:28.009Z,67.61
2022-08-21T07:17:55.135Z,67.87
2022-08-21T07:20:21.902Z,67.49
2022-08-21T07:22:48.579Z,67.08
2022-08-21T07:25:15.641Z,67.02
2022-08-21T07:27:42.319Z,67.68
2022-08-21T07:30:09.447Z,67.73
2022-08-21T07:32:36.382Z,67.22
2022-08-21T07:35:04.023Z,67.19
2022-08-21T07:37:30.706Z,67.05
2022-08-21T07:39:57.829Z,67.75
2022-08-21T07:42:24.607Z,66.69
2022-08-21T07:44:53.108Z,66.12
2022-08-21T07:47:29.323Z,66.21
2022-08-21T07:50:09.339Z,66.19
2022-08-21T07:52:36.310Z,66.39
2022-08-21T07:55:06.275Z,66.85
2022-08-21T07:57:34.099Z,65.89
2022-08-21T08:00:01.026Z,66.54
2022-08-21T08:02:30.158Z,66.25
2022-08-21T08:05:06.732Z,66.17
2022-08-21T08:07:33.597Z,65.78
2022-08-21T08:10:01.003Z,64.54
2022-08-21T08:12:30.371Z,64.38
2022-08-21T08:15:01.434Z,64.65
2022-08-21T08:17:28.525Z,64.19
2022-08-21T08:19:55.533Z,65.43
2022-08-21T08:22:24.960Z,63.54
2022-08-21T08:24:53.433Z,63.54
2022-08-21T08:27:21.457Z,63.32
2022-08-21T08:29:48.954Z,63.28
2022-08-21T08:32:16.083Z,63.28
2022-08-21T08:34:42.811Z,63.94
2022-08-21T08:37:11.001Z,62.72
2022-08-21T08:39:39.093Z,63.28
2022-08-21T08:42:33.476Z,62.39
2022-08-21T08:45:14.656Z,62.51
2022-08-21T08:47:45.645Z,62.76
2022-08-21T08:50:24.604Z,61.28
2022-08-21T08:53:12.758Z,60.79
2022-08-21T08:55:42.973Z,61.45
2022-08-21T08:58:32.052Z,60.81
2022-08-21T09:01:00.347Z,60.88
2022-08-21T09:03:28.768Z,60.17
2022-08-21T09:06:12.899Z,60.51
2022-08-21T09:09:01.369Z,59.97
2022-08-21T09:11:37.703Z,59.93
2022-08-21T09:14:10.850Z,59.74
2022-08-21T09:16:43.532Z,59.77
2022-08-21T09:19:18.240Z,59.16
2022-08-21T09:22:10.240Z,58.83
2022-08-21T09:25:12.440Z,58.40
2022-08-21T09:27:39.161Z,58.24
2022-08-21T09:30:08.294Z,59.21
2022-08-21T09:32:37.823Z,58.15
2022-08-21T09:35:13.304Z,57.01
2022-08-21T09:37:59.262Z,57.30
2022-08-21T09:40:31.709Z,57.70
2022-08-21T09:43:04.290Z,56.33
2022-08-21T09:45:33.866Z,55.74
2022-08-21T09:48:14.408Z,55.48
2022-08-21T09:50:42.566Z,55.67
2022-08-21T09:53:17.379Z,53.87
2022-08-21T09:56:17.139Z,54.07
2022-08-21T09:58:47.754Z,54.18
2022-08-21T10:01:18.560Z,53.13
2022-08-21T10:03:47.289Z,52.84
2022-08-21T10:06:28.829Z,53.20
2022-08-21T10:09:19.911Z,53.17
2022-08-21T10:12:14.956Z,52.78
2022-08-21T10:15:12.020Z,52.35
2022-08-21T10:17:47.536Z,52.34
2022-08-21T10:20:20.881Z,51.73
2022-08-21T10:22:56.880Z,51.02
2022-08-21T10:25:30.115Z,50.95
2022-08-21T10:28:21.411Z,50.67
2022-08-21T10:30:51.305Z,51.73
2022-08-21T10:33:44.432Z,52.60
2022-08-21T10:36:36.631Z,50.56
2022-08-21T10:39:35.190Z,51.17
2022-08-21T10:42:28.274Z,50.53
2022-08-21T10:45:09.622Z,50.78
2022-08-21T10:47:57.331Z,50.33
2022-08-21T10:50:45.663Z,49.76
2022-08-21T10:53:49.644Z,50.28
2022-08-21T10:56:23.967Z,50.63
2022-08-21T10:59:23.925Z,49.34
2022-08-21T11:02:03.031Z,49.32
2022-08-21T11:04:49.114Z,49.69
2022-08-21T11:07:40.467Z,49.27
2022-08-21T11:10:22.240Z,49.54
2022-08-21T11:12:57.700Z,50.63
2022-08-21T11:15:29.580Z,49.12
2022-08-21T11:18:23.913Z,49.99
2022-08-21T11:21:36.644Z,50.71
2022-08-21T11:24:31.374Z,50.92
2022-08-21T11:27:01.866Z,50.89
2022-08-21T11:29:38.632Z,50.89
2022-08-21T11:32:08.696Z,50.21
2022-08-21T11:34:52.584Z,50.46
2022-08-21T11:37:57.124Z,50.23
2022-08-21T11:40:56.321Z,50.50
2022-08-21T11:43:43.769Z,50.67
2022-08-21T11:46:31.633Z,49.78
2022-08-21T11:49:29.487Z,49.79
2022-08-21T11:52:17.660Z,49.37
2022-08-21T11:54:55.155Z,48.90
2022-08-21T11:57:30.527Z,48.35
2022-08-21T12:00:00.762Z,48.47
2022-08-21T12:02:51.836Z,48.74
2022-08-21T12:05:40.734Z,49.36
2022-08-21T12:08:10.886Z,49.51
2022-08-21T12:10:42.128Z,48.99
2022-08-21T12:13:36.650Z,49.24
2022-08-21T12:16:14.443Z,49.54
2022-08-21T12:18:42.529Z,49.07
2022-08-21T12:21:23.750Z,48.34
2022-08-21T12:24:03.308Z,48.38
2022-08-21T12:26:50.682Z,48.55
2022-08-21T12:29:24.166Z,48.72
2022-08-21T12:32:00.880Z,47.93
2022-08-21T12:34:35.840Z,47.78
2022-08-21T12:37:17.943Z,48.16
2022-08-21T12:39:47.829Z,48.58
2022-08-21T12:42:23.378Z,48.62
2022-08-21T12:45:06.115Z,48.97
2022-08-21T12:47:48.364Z,48.98
2022-08-21T12:50:24.117Z,48.48
2022-08-21T12:53:29.262Z,48.48
2022-08-21T12:56:02.172Z,49.04
2022-08-21T12:58:29.863Z,48.54
2022-08-21T13:01:31.980Z,49.22
2022-08-21T13:04:05.309Z,49.28
2022-08-21T13:06:39.088Z,48.47
2022-08-21T13:09:11.128Z,48.68
2022-08-21T13:11:40.856Z,49.13
2022-08-21T13:14:26.862Z,48.25
2022-08-21T13:16:55.986Z,48.64
2022-08-21T13:19:24.448Z,48.45
2022-08-21T13:21:53.346Z,48.51
2022-08-21T13:27:27.870Z,48.62
2022-08-21T13:30:13.791Z,49.11
2022-08-21T13:32:49.626Z,49.19
2022-08-21T13:35:27.856Z,48.98
2022-08-21T13:37:56.747Z,49.12
2022-08-21T13:40:28.920Z,49.08
2022-08-21T13:42:57.113Z,48.36
2022-08-21T13:45:31.972Z,48.92
2022-08-21T13:48:06.175Z,49.46
2022-08-21T13:50:36.277Z,49.56
2022-08-21T13:53:07.382Z,49.40
2022-08-21T13:55:41.343Z,49.53
2022-08-21T13:58:09.644Z,49.63
2022-08-21T14:00:46.599Z,48.91
2022-08-21T14:03:35.660Z,49.18
2022-08-21T14:06:03.951Z,49.34
2022-08-21T14:08:37.979Z,49.68
2022-08-21T14:11:07.250Z,48.83
2022-08-21T14:13:47.738Z,49.13
2022-08-21T14:16:19.701Z,49.39
2022-08-21T14:18:50.130Z,49.56
2022-08-21T14:21:29.013Z,49.97
2022-08-21T14:24:15.327Z,50.19
2022-08-21T14:27:02.240Z,49.72
2022-08-21T14:29:35.422Z,49.49
2022-08-21T14:32:21.654Z,49.53
2022-08-21T14:34:54.749Z,49.29
2022-08-21T14:37:22.195Z,48.99
2022-08-21T14:39:48.963Z,48.81
2022-08-21T14:42:16.106Z,48.93
2022-08-21T14:44:43.217Z,48.96
2022-08-21T14:47:10.485Z,49.17
2022-08-21T14:49:37.649Z,49.56
2022-08-21T14:52:04.734Z,49.73
2022-08-21T14:54:32.893Z,49.63
2022-08-21T14:57:04.504Z,49.07
2022-08-21T14:59:33.979Z,49.28
2022-08-21T15:02:01.942Z,49.27
2022-08-21T15:04:28.759Z,48.80
2022-08-21T15:06:55.495Z,49.22
2022-08-21T15:09:22.773Z,49.31
2022-08-21T15:11:49.618Z,49.26
2022-08-21T15:14:21.738Z,49.37
2022-08-21T15:16:49.813Z,49.40
2022-08-21T15:19:16.737Z,49.75
2022-08-21T15:21:43.706Z,49.62
2022-08-21T15:24:10.800Z,49.34
2022-08-21T15:26:37.488Z,49.59
2022-08-21T15:29:06.978Z,49.93
2022-08-21T15:31:34.761Z,49.65
2022-08-21T15:34:02.246Z,49.83
2022-08-21T15:36:28.980Z,49.53
2022-08-21T15:38:56.023Z,49.88
2022-08-21T15:41:22.931Z,50.38
2022-08-21T15:43:52.681Z,50.89
2022-08-21T15:46:20.895Z,51.45
2022-08-21T15:48:47.802Z,51.28
2022-08-21T15:51:17.060Z,51.62
2022-08-21T15:53:44.925Z,51.75
2022-08-21T15:56:37.545Z,51.97
2022-08-21T15:59:13.520Z,52.10
2022-08-21T16:01:44.822Z,52.45
2022-08-21T16:04:19.780Z,52.68
2022-08-21T16:06:54.288Z,52.81
2022-08-21T16:09:24.426Z,52.78
2022-08-21T16:11:52.094Z,52.77
2022-08-21T16:14:19.009Z,52.46
2022-08-21T16:16:46.306Z,52.33
2022-08-21T16:19:14.579Z,52.61
2022-08-21T16:21:41.558Z,52.81
2022-08-21T16:24:08.486Z,53.01
2022-08-21T16:26:35.274Z,52.84
2022-08-21T16:29:03.234Z,53.09
2022-08-21T16:31:31.999Z,53.14
2022-08-21T16:33:59.697Z,53.49
2022-08-21T16:36:27.571Z,53.65
2022-08-21T16:38:56.577Z,53.49
2022-08-21T16:41:27.190Z,53.68
2022-08-21T16:43:54.409Z,53.75
2022-08-21T16:46:22.928Z,53.72
2022-08-21T16:48:50.232Z,53.82
2022-08-21T16:51:17.604Z,54.06
2022-08-21T16:53:44.654Z,54.14
2022-08-21T16:56:13.567Z,54.36
2022-08-21T16:58:44.245Z,54.63
2022-08-21T17:01:15.159Z,54.90
2022-08-21T17:03:45.808Z,55.12
2022-08-21T17:06:13.508Z,55.25
2022-08-21T17:08:42.270Z,55.51
2022-08-21T17:11:32.497Z,55.78
2022-08-21T17:14:07.650Z,55.88
2022-08-21T17:16:35.602Z,56.01
2022-08-21T17:19:02.436Z,56.23
2022-08-21T17:21:29.207Z,56.31
2022-08-21T17:23:56.409Z,56.64
2022-08-21T17:26:23.846Z,56.66
2022-08-21T17:28:54.604Z,56.80
2022-08-21T17:31:22.167Z,56.83
2022-08-21T17:33:53.045Z,56.51
2022-08-21T17:36:22.357Z,57.27
2022-08-21T17:38:49.407Z,57.34
2022-08-21T17:41:16.984Z,57.57
2022-08-21T17:43:44.379Z,57.84
2022-08-21T17:46:17.183Z,58.09
2022-08-21T17:48:47.457Z,58.14
2022-08-21T17:51:15.421Z,58.39
2022-08-21T17:53:42.647Z,58.58
2022-08-21T17:56:09.514Z,58.97
2022-08-21T17:58:37.290Z,59.08
2022-08-21T18:01:05.835Z,59.29
2022-08-21T18:03:38.361Z,59.62
2022-08-21T18:06:06.171Z,60.03
2022-08-21T18:08:34.358Z,60.19
2022-08-21T18:11:01.473Z,60.37
2022-08-21T18:13:31.544Z,60.58
2022-08-21T18:16:00.305Z,60.84
2022-08-21T18:18:32.874Z,61.07
2022-08-21T18:20:59.898Z,61.27
2022-08-21T18:23:43.469Z,61.68
2022-08-21T18:26:15.200Z,61.87
2022-08-21T18:28:44.123Z,62.26
2022-08-21T18:31:12.208Z,62.48
2022-08-21T18:33:43.680Z,62.70
2022-08-21T18:36:27.833Z,63.06
2022-08-21T18:39:08.682Z,63.47
2022-08-21T18:41:41.420Z,63.70
2022-08-21T18:44:08.498Z,64.00
2022-08-21T18:46:35.235Z,64.24
2022-08-21T18:49:02.386Z,64.46
2022-08-21T18:51:29.081Z,64.69
2022-08-21T18:53:56.174Z,64.89
2022-08-21T18:56:23.185Z,65.12
2022-08-21T18:58:51.010Z,65.31
2022-08-21T19:01:17.797Z,65.60
2022-08-21T19:03:44.868Z,65.65
2022-08-21T19:06:11.941Z,65.65
2022-08-21T19:08:38.814Z,65.87
2022-08-21T19:11:06.602Z,66.31
2022-08-21T19:13:34.505Z,66.32
2022-08-21T19:16:05.184Z,66.50
2022-08-21T19:18:37.289Z,66.77
2022-08-21T19:21:04.377Z,66.86
2022-08-21T19:23:31.322Z,66.96
2022-08-21T19:26:07.340Z,67.23
2022-08-21T19:28:48.071Z,67.41
2022-08-21T19:31:19.752Z,67.78
2022-08-21T19:34:01.569Z,67.91
2022-08-21T19:36:30.044Z,68.13
2022-08-21T19:38:56.975Z,68.39
2022-08-21T19:41:28.172Z,68.53
2022-08-21T19:43:58.282Z,68.73
2022-08-21T19:46:35.046Z,68.87
2022-08-21T19:49:04.801Z,68.95
2022-08-21T19:51:35.547Z,69.27
2022-08-21T19:54:03.517Z,69.37
2022-08-21T19:56:32.515Z,69.56
2022-08-21T19:59:03.031Z,69.57
2022-08-21T20:01:33.188Z,69.62
2022-08-21T20:04:00.457Z,69.88
2022-08-21T20:06:27.265Z,69.96
2022-08-21T20:08:55.240Z,69.92
2022-08-21T20:11:28.775Z,70.25
2022-08-21T20:13:59.491Z,70.23
2022-08-21T20:16:28.991Z,70.36
2022-08-21T20:18:56.074Z,70.48
2022-08-21T20:21:22.949Z,70.73
2022-08-21T20:23:50.239Z,71.00
2022-08-21T20:26:19.001Z,71.07
2022-08-21T20:28:46.228Z,71.46
2022-08-21T20:31:17.729Z,71.52
2022-08-21T20:33:46.963Z,70.68
2022-08-21T20:36:16.904Z,71.31
2022-08-21T20:38:44.892Z,71.53
2022-08-21T20:41:21.255Z,71.79
2022-08-21T20:43:58.724Z,71.92
2022-08-21T20:46:27.163Z,72.15
2022-08-21T20:48:54.432Z,72.34
2022-08-21T20:51:39.417Z,72.14
2022-08-21T20:54:35.606Z,72.09
2022-08-21T20:57:03.655Z,72.30
2022-08-21T20:59:30.287Z,72.74
2022-08-21T21:02:02.442Z,72.78
2022-08-21T21:04:40.860Z,72.82
2022-08-21T21:07:15.857Z,73.05
2022-08-21T21:09:49.654Z,73.17
2022-08-21T21:12:27.911Z,73.28
2022-08-21T21:15:00.575Z,73.48
2022-08-21T21:17:36.369Z,73.73
2022-08-21T21:20:17.306Z,73.97
2022-08-21T21:22:57.863Z,74.02
2022-08-21T21:25:40.660Z,74.24
2022-08-21T21:28:13.199Z,74.66
2022-08-21T21:33:31.088Z,74.86
2022-08-21T21:36:07.701Z,75.01
2022-08-21T21:38:51.637Z,75.31
2022-08-21T21:41:54.320Z,75.53
2022-08-21T21:44:33.031Z,75.56
2022-08-21T21:47:06.082Z,75.75
2022-08-21T21:52:34.566Z,76.08
2022-08-21T21:55:13.576Z,76.36
2022-08-21T21:57:58.393Z,76.35
2022-08-21T22:00:30.772Z,76.75
2022-08-21T22:03:22.416Z,76.93
2022-08-21T22:06:06.816Z,77.07
2022-08-21T22:08:50.981Z,77.07
2022-08-21T22:11:31.824Z,77.23
2022-08-21T22:14:16.104Z,77.66
2022-08-21T22:16:48.755Z,77.15
2022-08-21T22:19:26.502Z,77.17
2022-08-21T22:22:12.660Z,76.88
2022-08-21T22:24:43.948Z,77.03
2022-08-21T22:27:17.078Z,77.16
2022-08-21T22:29:56.144Z,77.28
2022-08-21T22:32:38.051Z,77.31
2022-08-21T22:35:17.072Z,77.44
2022-08-21T22:37:55.114Z,77.46
2022-08-21T22:40:27.587Z,77.63
2022-08-21T22:43:26.374Z,77.61
2022-08-21T22:46:04.276Z,77.66
2022-08-21T22:48:51.051Z,77.96
2022-08-21T22:51:32.455Z,78.08
2022-08-21T22:54:00.223Z,78.12
2022-08-21T22:56:43.360Z,78.16
2022-08-21T22:59:25.801Z,78.05
2022-08-21T23:01:59.510Z,78.34
2022-08-21T23:04:27.430Z,78.55
2022-08-21T23:06:58.277Z,78.58
2022-08-21T23:09:37.408Z,78.99
2022-08-21T23:12:23.836Z,78.97
2022-08-21T23:15:05.339Z,79.28
2022-08-21T23:17:49.662Z,79.62
2022-08-21T23:20:24.975Z,79.83
2022-08-21T23:23:03.664Z,80.22
2022-08-21T23:25:36.453Z,80.23
2022-08-21T23:28:57.415Z,80.43
2022-08-21T23:31:44.293Z,80.53
2022-08-21T23:34:29.782Z,80.74
2022-08-21T23:37:48.767Z,80.79
2022-08-21T23:40:38.816Z,80.92
2022-08-21T23:47:10.517Z,81.14
2022-08-21T23:49:54.058Z,80.68
2022-08-21T23:52:21.194Z,81.03
2022-08-21T23:55:12.091Z,81.23
2022-08-21T23:58:02.010Z,81.43
